^^
Marion, Virginia Banner
 

Adwolf, VA. Station Historical Data
[ Providing Data Since 6/07/2007 ]
Station Historical Data
Daily Summary for September 14, 2017 Units:  Both    English   Metric
« Previous Day
Next Day »
Daily Weekly Monthly Yearly Custom
  High: Low: Average:
Temperature: 64.9 °F /  18.3 °C 58.1 °F /  14.5 °C 61.2 °F /  16.2 °C
Dew Point: 61.8 °F /  16.6 °C 55.7 °F /  13.2 °C 58.5 °F /  14.7 °C
Humidity: 92% 89% 91%
Wind Speed: 9.2mph /  14.8km/h - 2.5mph /  4km/h
Wind Gust: 9.2mph /  14.8km/h - -
Wind- - SW
Pressure: 30.06 in /  1017.8 hPa 29.90 in /  1012.4 hPa -
Precipitation: 0.01 in /  0.25 mm    
Historical Graphs
 
 
Tabular Data for September 14, 2017
Time Temperature Dew Point Pressure Wind Wind Speed Wind Gust Humidity Rainfall Rate (Hourly) solar Conditions
00:02 60.3 °F /  15.7 °C 57.3 °F /  14.1 °C 29.90in /  1012.4hPa SW 1.2mph /  1.9km/h 1.2mph /  1.9km/h 90% 0.00in /  0mm WeatherDisplay:10.37 W/m2 OVC
00:07 60.2 °F /  15.7 °C 57.2 °F /  14 °C 29.90in /  1012.4hPa WSW 2.3mph /  3.7km/h 2.3mph /  3.7km/h 90% 0.00in /  0mm WeatherDisplay:10.37 W/m2 OVC
00:12 60.1 °F /  15.6 °C 57.1 °F /  13.9 °C 29.90in /  1012.4hPa WSW 2.3mph /  3.7km/h 2.3mph /  3.7km/h 90% 0.00in /  0mm WeatherDisplay:10.37 W/m2 OVC
00:17 60.1 °F /  15.6 °C 57.1 °F /  13.9 °C 29.90in /  1012.4hPa WSW 3.5mph /  5.6km/h 3.5mph /  5.6km/h 90% 0.00in /  0mm WeatherDisplay:10.37 W/m2 OVC
00:22 60.1 °F /  15.6 °C 57.1 °F /  13.9 °C 29.90in /  1012.4hPa WSW 2.3mph /  3.7km/h 2.3mph /  3.7km/h 90% 0.00in /  0mm WeatherDisplay:10.37 W/m2 OVC
00:27 60.0 °F /  15.6 °C 57.0 °F /  13.9 °C 29.90in /  1012.4hPa WSW 3.5mph /  5.6km/h 3.5mph /  5.6km/h 90% 0.00in /  0mm WeatherDisplay:10.37 W/m2 OVC
00:32 60.0 °F /  15.6 °C 57.0 °F /  13.9 °C 29.90in /  1012.4hPa WSW 3.5mph /  5.6km/h 3.5mph /  5.6km/h 90% 0.00in /  0mm WeatherDisplay:10.37 W/m2 OVC
00:37 60.0 °F /  15.6 °C 57.0 °F /  13.9 °C 29.90in /  1012.4hPa WSW 2.3mph /  3.7km/h 2.3mph /  3.7km/h 90% 0.00in /  0mm WeatherDisplay:10.37 W/m2 OVC
00:42 60.0 °F /  15.6 °C 57.0 °F /  13.9 °C 29.90in /  1012.4hPa WSW 2.3mph /  3.7km/h 2.3mph /  3.7km/h 90% 0.00in /  0mm WeatherDisplay:10.37 W/m2 OVC
00:47 60.0 °F /  15.6 °C 57.0 °F /  13.9 °C 29.90in /  1012.4hPa WSW 2.3mph /  3.7km/h 2.3mph /  3.7km/h 90% 0.01in /  0.25mm WeatherDisplay:10.37 W/m2 RA
00:52 60.0 °F /  15.6 °C 57.0 °F /  13.9 °C 29.90in /  1012.4hPa WSW 3.5mph /  5.6km/h 3.5mph /  5.6km/h 90% 0.01in /  0.25mm WeatherDisplay:10.37 W/m2 RA
00:57 59.9 °F /  15.5 °C 56.9 °F /  13.8 °C 29.90in /  1012.4hPa WSW 3.5mph /  5.6km/h 3.5mph /  5.6km/h 90% 0.01in /  0.25mm WeatherDisplay:10.37 W/m2 OVC
01:02 59.9 °F /  15.5 °C 56.9 °F /  13.8 °C 29.90in /  1012.4hPa WSW 3.5mph /  5.6km/h 3.5mph /  5.6km/h 90% 0.01in /  0.25mm WeatherDisplay:10.37 W/m2 OVC
01:07 59.9 °F /  15.5 °C 56.9 °F /  13.8 °C 29.90in /  1012.4hPa WSW 2.3mph /  3.7km/h 2.3mph /  3.7km/h 90% 0.01in /  0.25mm WeatherDisplay:10.37 W/m2 -DZ
01:12 59.9 °F /  15.5 °C 56.9 °F /  13.8 °C 29.90in /  1012.4hPa WSW 2.3mph /  3.7km/h 2.3mph /  3.7km/h 90% 0.01in /  0.25mm WeatherDisplay:10.37 W/m2 -DZ
01:17 59.9 °F /  15.5 °C 56.9 °F /  13.8 °C 29.90in /  1012.4hPa WSW 2.0mph /  3.2km/h 2.0mph /  3.2km/h 90% 0.01in /  0.25mm WeatherDisplay:10.37 W/m2 -DZ
01:22 59.9 °F /  15.5 °C 56.9 °F /  13.8 °C 29.90in /  1012.4hPa WSW 3.5mph /  5.6km/h 3.5mph /  5.6km/h 90% 0.01in /  0.25mm WeatherDisplay:10.37 W/m2 -DZ
01:27 59.9 °F /  15.5 °C 57.2 °F /  14 °C 29.90in /  1012.4hPa WSW 2.3mph /  3.7km/h 2.3mph /  3.7km/h 91% 0.01in /  0.25mm WeatherDisplay:10.37 W/m2 OVC
01:32 59.8 °F /  15.4 °C 56.8 °F /  13.8 °C 29.90in /  1012.4hPa WSW 2.3mph /  3.7km/h 2.3mph /  3.7km/h 90% 0.01in /  0.25mm WeatherDisplay:10.37 W/m2 OVC
01:37 59.9 °F /  15.5 °C 57.2 °F /  14 °C 29.90in /  1012.4hPa WSW 2.3mph /  3.7km/h 2.3mph /  3.7km/h 91% 0.01in /  0.25mm WeatherDisplay:10.37 W/m2 OVC
01:42 59.9 °F /  15.5 °C 56.9 °F /  13.8 °C 29.90in /  1012.4hPa WSW 2.3mph /  3.7km/h 2.3mph /  3.7km/h 90% 0.01in /  0.25mm WeatherDisplay:10.37 W/m2 OVC
01:47 59.9 °F /  15.5 °C 56.9 °F /  13.8 °C 29.90in /  1012.4hPa WSW 1.2mph /  1.9km/h 1.2mph /  1.9km/h 90% 0.01in /  0.25mm WeatherDisplay:10.37 W/m2 OVC
01:52 59.9 °F /  15.5 °C 56.9 °F /  13.8 °C 29.90in /  1012.4hPa WSW 1.2mph /  1.9km/h 1.2mph /  1.9km/h 90% 0.00in /  0mm WeatherDisplay:10.37 W/m2 OVC
01:57 59.8 °F /  15.4 °C 56.8 °F /  13.8 °C 29.91in /  1012.8hPa WSW 2.0mph /  3.2km/h 2.0mph /  3.2km/h 90% 0.00in /  0mm WeatherDisplay:10.37 W/m2 OVC
02:02 59.8 °F /  15.4 °C 56.8 °F /  13.8 °C 29.91in /  1012.8hPa WSW 2.3mph /  3.7km/h 2.3mph /  3.7km/h 90% 0.00in /  0mm WeatherDisplay:10.37 W/m2 OVC
02:07 59.7 °F /  15.4 °C 56.7 °F /  13.7 °C 29.91in /  1012.8hPa WSW 2.3mph /  3.7km/h 2.3mph /  3.7km/h 90% 0.00in /  0mm WeatherDisplay:10.37 W/m2 OVC
02:12 59.7 °F /  15.4 °C 57.0 °F /  13.9 °C 29.91in /  1012.8hPa WSW 2.3mph /  3.7km/h 2.3mph /  3.7km/h 91% 0.00in /  0mm WeatherDisplay:10.37 W/m2 OVC
02:17 59.7 °F /  15.4 °C 57.0 °F /  13.9 °C 29.91in /  1012.8hPa WSW 2.3mph /  3.7km/h 2.4mph /  3.9km/h 91% 0.00in /  0mm WeatherDisplay:10.37 W/m2 OVC
02:22 59.7 °F /  15.4 °C 57.0 °F /  13.9 °C 29.90in /  1012.4hPa WSW 3.5mph /  5.6km/h 3.5mph /  5.6km/h 91% 0.00in /  0mm WeatherDisplay:10.37 W/m2 OVC
02:27 59.7 °F /  15.4 °C 57.0 °F /  13.9 °C 29.91in /  1012.8hPa WSW 3.5mph /  5.6km/h 3.5mph /  5.6km/h 91% 0.00in /  0mm WeatherDisplay:10.37 W/m2 OVC
02:32 59.7 °F /  15.4 °C 57.0 °F /  13.9 °C 29.90in /  1012.4hPa SW 3.5mph /  5.6km/h 3.5mph /  5.6km/h 91% 0.00in /  0mm WeatherDisplay:10.37 W/m2 OVC
02:37 59.7 °F /  15.4 °C 57.0 °F /  13.9 °C 29.91in /  1012.8hPa SW 3.5mph /  5.6km/h 3.5mph /  5.6km/h 91% 0.00in /  0mm WeatherDisplay:10.37 W/m2 OVC
02:42 59.7 °F /  15.4 °C 57.0 °F /  13.9 °C 29.91in /  1012.8hPa SW 3.5mph /  5.6km/h 3.5mph /  5.6km/h 91% 0.00in /  0mm WeatherDisplay:10.37 W/m2 OVC
02:47 59.7 °F /  15.4 °C 57.0 °F /  13.9 °C 29.91in /  1012.8hPa SW 2.3mph /  3.7km/h 2.3mph /  3.7km/h 91% 0.00in /  0mm WeatherDisplay:10.37 W/m2 OVC
02:52 59.7 °F /  15.4 °C 57.0 °F /  13.9 °C 29.91in /  1012.8hPa SW 3.5mph /  5.6km/h 3.5mph /  5.6km/h 91% 0.00in /  0mm WeatherDisplay:10.37 W/m2 OVC
02:57 59.7 °F /  15.4 °C 57.0 °F /  13.9 °C 29.91in /  1012.8hPa SW 3.5mph /  5.6km/h 3.5mph /  5.6km/h 91% 0.00in /  0mm WeatherDisplay:10.37 W/m2 OVC
03:02 59.7 °F /  15.4 °C 57.0 °F /  13.9 °C 29.91in /  1012.8hPa SW 2.3mph /  3.7km/h 2.3mph /  3.7km/h 91% 0.00in /  0mm WeatherDisplay:10.37 W/m2 OVC
03:07 59.7 °F /  15.4 °C 57.0 °F /  13.9 °C 29.90in /  1012.4hPa SW 2.3mph /  3.7km/h 2.3mph /  3.7km/h 91% 0.00in /  0mm WeatherDisplay:10.37 W/m2 OVC
03:12 59.7 °F /  15.4 °C 57.0 °F /  13.9 °C 29.91in /  1012.8hPa SW 2.3mph /  3.7km/h 2.3mph /  3.7km/h 91% 0.00in /  0mm WeatherDisplay:10.37 W/m2 OVC
03:17 59.7 °F /  15.4 °C 57.0 °F /  13.9 °C 29.91in /  1012.8hPa SW 1.2mph /  1.9km/h 1.2mph /  1.9km/h 91% 0.00in /  0mm WeatherDisplay:10.37 W/m2 OVC
03:22 59.7 °F /  15.4 °C 57.0 °F /  13.9 °C 29.91in /  1012.8hPa SW 2.3mph /  3.7km/h 2.3mph /  3.7km/h 91% 0.00in /  0mm WeatherDisplay:10.37 W/m2 OVC
03:27 59.7 °F /  15.4 °C 57.0 °F /  13.9 °C 29.91in /  1012.8hPa SW 2.3mph /  3.7km/h 2.3mph /  3.7km/h 91% 0.00in /  0mm WeatherDisplay:10.37 W/m2 OVC
03:32 59.8 °F /  15.4 °C 57.1 °F /  13.9 °C 29.91in /  1012.8hPa SW 2.3mph /  3.7km/h   91% 0.00in /  0mm WeatherDisplay:10.37 W/m2 OVC
03:37 59.8 °F /  15.4 °C 57.1 °F /  13.9 °C 29.91in /  1012.8hPa SW 2.3mph /  3.7km/h 2.3mph /  3.7km/h 91% 0.00in /  0mm WeatherDisplay:10.37 W/m2 OVC
03:42 59.7 °F /  15.4 °C 57.0 °F /  13.9 °C 29.91in /  1012.8hPa WSW 3.5mph /  5.6km/h 3.5mph /  5.6km/h 91% 0.00in /  0mm WeatherDisplay:10.37 W/m2 OVC
03:47 59.7 °F /  15.4 °C 57.0 °F /  13.9 °C 29.91in /  1012.8hPa WSW 3.5mph /  5.6km/h 3.5mph /  5.6km/h 91% 0.00in /  0mm WeatherDisplay:10.37 W/m2 OVC
03:52 59.7 °F /  15.4 °C 57.0 °F /  13.9 °C 29.91in /  1012.8hPa WSW 3.0mph /  4.8km/h 3.0mph /  4.8km/h 91% 0.00in /  0mm WeatherDisplay:10.37 W/m2 OVC
03:57 59.7 °F /  15.4 °C 57.0 °F /  13.9 °C 29.91in /  1012.8hPa SW 3.5mph /  5.6km/h 3.5mph /  5.6km/h 91% 0.00in /  0mm WeatherDisplay:10.37 W/m2 OVC
04:02 59.7 °F /  15.4 °C 57.0 °F /  13.9 °C 29.91in /  1012.8hPa SW 3.5mph /  5.6km/h 3.5mph /  5.6km/h 91% 0.00in /  0mm WeatherDisplay:10.37 W/m2 OVC
04:07 59.7 °F /  15.4 °C 57.0 °F /  13.9 °C 29.91in /  1012.8hPa SSW 2.3mph /  3.7km/h 2.3mph /  3.7km/h 91% 0.00in /  0mm WeatherDisplay:10.37 W/m2 OVC
04:12 59.7 °F /  15.4 °C 57.0 °F /  13.9 °C 29.91in /  1012.8hPa SW 2.3mph /  3.7km/h 2.3mph /  3.7km/h 91% 0.00in /  0mm WeatherDisplay:10.37 W/m2 OVC
04:17 59.7 °F /  15.4 °C 57.0 °F /  13.9 °C 29.91in /  1012.8hPa SW 3.5mph /  5.6km/h 3.5mph /  5.6km/h 91% 0.00in /  0mm WeatherDisplay:10.37 W/m2 OVC
04:22 59.7 °F /  15.4 °C 57.0 °F /  13.9 °C 29.91in /  1012.8hPa SW 4.6mph /  7.4km/h 4.6mph /  7.4km/h 91% 0.00in /  0mm WeatherDisplay:10.37 W/m2 OVC
04:27 59.7 °F /  15.4 °C 57.0 °F /  13.9 °C 29.91in /  1012.8hPa SW 4.6mph /  7.4km/h 4.6mph /  7.4km/h 91% 0.00in /  0mm WeatherDisplay:10.37 W/m2 OVC
04:32 59.7 °F /  15.4 °C 57.0 °F /  13.9 °C 29.91in /  1012.8hPa SW 3.5mph /  5.6km/h 3.5mph /  5.6km/h 91% 0.00in /  0mm WeatherDisplay:10.37 W/m2 OVC
04:37 59.7 °F /  15.4 °C 57.0 °F /  13.9 °C 29.91in /  1012.8hPa SW 2.3mph /  3.7km/h 2.3mph /  3.7km/h 91% 0.00in /  0mm WeatherDisplay:10.37 W/m2 OVC
04:42 59.6 °F /  15.3 °C 56.9 °F /  13.8 °C 29.91in /  1012.8hPa SW 3.5mph /  5.6km/h 3.5mph /  5.6km/h 91% 0.00in /  0mm WeatherDisplay:10.37 W/m2 OVC
04:47 59.6 °F /  15.3 °C 56.9 °F /  13.8 °C 29.92in /  1013.1hPa SW 3.5mph /  5.6km/h 3.5mph /  5.6km/h 91% 0.00in /  0mm WeatherDisplay:10.37 W/m2 OVC
04:52 59.6 °F /  15.3 °C 56.9 °F /  13.8 °C 29.92in /  1013.1hPa SSW 3.5mph /  5.6km/h 3.5mph /  5.6km/h 91% 0.00in /  0mm WeatherDisplay:10.37 W/m2 OVC
04:57 59.6 °F /  15.3 °C 56.9 °F /  13.8 °C 29.92in /  1013.1hPa SSW 2.3mph /  3.7km/h 2.3mph /  3.7km/h 91% 0.00in /  0mm WeatherDisplay:10.37 W/m2 OVC
05:02 59.6 °F /  15.3 °C 56.9 °F /  13.8 °C 29.91in /  1012.8hPa SSW 2.3mph /  3.7km/h 2.3mph /  3.7km/h 91% 0.00in /  0mm WeatherDisplay:10.37 W/m2 OVC
05:07 59.5 °F /  15.3 °C 56.8 °F /  13.8 °C 29.91in /  1012.8hPa SSW 2.3mph /  3.7km/h 2.3mph /  3.7km/h 91% 0.00in /  0mm WeatherDisplay:10.37 W/m2 OVC
05:12 59.5 °F /  15.3 °C 56.8 °F /  13.8 °C 29.91in /  1012.8hPa SW 3.0mph /  4.8km/h 3.0mph /  4.8km/h 91% 0.00in /  0mm WeatherDisplay:10.37 W/m2 OVC
05:17 59.5 °F /  15.3 °C 56.8 °F /  13.8 °C 29.91in /  1012.8hPa SW 2.3mph /  3.7km/h 2.3mph /  3.7km/h 91% 0.00in /  0mm WeatherDisplay:10.37 W/m2 OVC
05:22 59.5 °F /  15.3 °C 56.8 °F /  13.8 °C 29.91in /  1012.8hPa SW 1.2mph /  1.9km/h 1.2mph /  1.9km/h 91% 0.00in /  0mm WeatherDisplay:10.37 W/m2 OVC
05:27 59.5 °F /  15.3 °C 56.8 °F /  13.8 °C 29.91in /  1012.8hPa SW 2.3mph /  3.7km/h 2.3mph /  3.7km/h 91% 0.00in /  0mm WeatherDisplay:10.37 W/m2 OVC
05:32 59.4 °F /  15.2 °C 56.7 °F /  13.7 °C 29.91in /  1012.8hPa SW 2.3mph /  3.7km/h   91% 0.00in /  0mm WeatherDisplay:10.37 W/m2 OVC
05:37 59.4 °F /  15.2 °C 56.7 °F /  13.7 °C 29.92in /  1013.1hPa SW 1.2mph /  1.9km/h 1.2mph /  1.9km/h 91% 0.00in /  0mm WeatherDisplay:10.37 W/m2 OVC
05:42 59.4 °F /  15.2 °C 56.7 °F /  13.7 °C 29.92in /  1013.1hPa SW 1.2mph /  1.9km/h 1.2mph /  1.9km/h 91% 0.00in /  0mm WeatherDisplay:10.37 W/m2 OVC
05:47 59.4 °F /  15.2 °C 56.7 °F /  13.7 °C 29.92in /  1013.1hPa Calm     91% 0.00in /  0mm WeatherDisplay:10.37 W/m2 OVC
05:52 59.4 °F /  15.2 °C 56.7 °F /  13.7 °C 29.92in /  1013.1hPa SW 1.2mph /  1.9km/h 1.2mph /  1.9km/h 91% 0.00in /  0mm WeatherDisplay:10.37 W/m2 OVC
05:57 59.4 °F /  15.2 °C 56.7 °F /  13.7 °C 29.92in /  1013.1hPa SW 1.2mph /  1.9km/h 1.2mph /  1.9km/h 91% 0.00in /  0mm WeatherDisplay:10.37 W/m2 OVC
06:02 59.4 °F /  15.2 °C 56.7 °F /  13.7 °C 29.92in /  1013.1hPa SW 1.2mph /  1.9km/h   91% 0.00in /  0mm WeatherDisplay:10.37 W/m2 OVC
06:07 59.4 °F /  15.2 °C 56.7 °F /  13.7 °C 29.92in /  1013.1hPa Calm     91% 0.00in /  0mm WeatherDisplay:10.37 W/m2 OVC
06:12 59.4 °F /  15.2 °C 56.7 °F /  13.7 °C 29.92in /  1013.1hPa Calm     91% 0.00in /  0mm WeatherDisplay:10.37 W/m2 OVC
06:17 59.4 °F /  15.2 °C 56.7 °F /  13.7 °C 29.92in /  1013.1hPa Calm     91% 0.00in /  0mm WeatherDisplay:10.37 W/m2 OVC
06:22 59.4 °F /  15.2 °C 56.7 °F /  13.7 °C 29.92in /  1013.1hPa Calm     91% 0.00in /  0mm WeatherDisplay:10.37 W/m2 OVC
06:27 59.4 °F /  15.2 °C 56.7 °F /  13.7 °C 29.92in /  1013.1hPa South 1.2mph /  1.9km/h 1.2mph /  1.9km/h 91% 0.00in /  0mm WeatherDisplay:10.37 W/m2 OVC
06:32 59.4 °F /  15.2 °C 56.7 °F /  13.7 °C 29.92in /  1013.1hPa South 2.3mph /  3.7km/h 2.3mph /  3.7km/h 91% 0.00in /  0mm WeatherDisplay:10.37 W/m2 OVC
06:37 59.4 °F /  15.2 °C 56.7 °F /  13.7 °C 29.92in /  1013.1hPa South 1.0mph /  1.6km/h 1.0mph /  1.6km/h 91% 0.00in /  0mm WeatherDisplay:10.37 W/m2 OVC
06:42 59.4 °F /  15.2 °C 56.7 °F /  13.7 °C 29.92in /  1013.1hPa South 1.2mph /  1.9km/h 1.2mph /  1.9km/h 91% 0.00in /  0mm WeatherDisplay:10.37 W/m2 OVC
06:47 59.4 °F /  15.2 °C 56.7 °F /  13.7 °C 29.92in /  1013.1hPa South 1.2mph /  1.9km/h 1.2mph /  1.9km/h 91% 0.00in /  0mm WeatherDisplay:10.37 W/m2 OVC
06:52 59.4 °F /  15.2 °C 56.7 °F /  13.7 °C 29.92in /  1013.1hPa South 2.0mph /  3.2km/h 2.0mph /  3.2km/h 91% 0.00in /  0mm WeatherDisplay:10.37 W/m2 OVC
06:57 59.5 °F /  15.3 °C 56.8 °F /  13.8 °C 29.92in /  1013.1hPa South 2.3mph /  3.7km/h 2.3mph /  3.7km/h 91% 0.00in /  0mm WeatherDisplay:10.37 W/m2 OVC
07:02 59.4 °F /  15.2 °C 56.7 °F /  13.7 °C 29.93in /  1013.4hPa South 2.3mph /  3.7km/h 2.3mph /  3.7km/h 91% 0.00in /  0mm WeatherDisplay:10.37 W/m2 OVC
07:07 59.4 °F /  15.2 °C 56.7 °F /  13.7 °C 29.93in /  1013.4hPa South 3.5mph /  5.6km/h 3.5mph /  5.6km/h 91% 0.00in /  0mm WeatherDisplay:10.37 W/m2 OVC
07:12 59.4 °F /  15.2 °C 56.7 °F /  13.7 °C 29.93in /  1013.4hPa South 1.2mph /  1.9km/h 1.2mph /  1.9km/h 91% 0.00in /  0mm WeatherDisplay:10.37 W/m2 OVC
07:17 59.4 °F /  15.2 °C 56.7 °F /  13.7 °C 29.93in /  1013.4hPa South 1.2mph /  1.9km/h 1.2mph /  1.9km/h 91% 0.00in /  0mm WeatherDisplay:10.37 W/m2 OVC
07:22 59.4 °F /  15.2 °C 56.7 °F /  13.7 °C 29.93in /  1013.4hPa South 1.2mph /  1.9km/h 1.2mph /  1.9km/h 91% 0.00in /  0mm WeatherDisplay:10.37 W/m2 OVC
07:27 59.4 °F /  15.2 °C 56.7 °F /  13.7 °C 29.94in /  1013.8hPa South 1.2mph /  1.9km/h 1.2mph /  1.9km/h 91% 0.00in /  0mm WeatherDisplay:10.37 W/m2 OVC
07:32 59.3 °F /  15.2 °C 56.6 °F /  13.7 °C 29.94in /  1013.8hPa Calm     91% 0.00in /  0mm WeatherDisplay:10.37 W/m2 OVC
07:37 59.4 °F /  15.2 °C 56.7 °F /  13.7 °C 29.94in /  1013.8hPa Calm     91% 0.00in /  0mm WeatherDisplay:10.37 W/m2 OVC
07:42 59.5 °F /  15.3 °C 56.8 °F /  13.8 °C 29.94in /  1013.8hPa Calm     91% 0.00in /  0mm WeatherDisplay:10.37 W/m2 OVC
07:47 59.5 °F /  15.3 °C 56.8 °F /  13.8 °C 29.94in /  1013.8hPa South 1.0mph /  1.6km/h   91% 0.00in /  0mm WeatherDisplay:10.37 W/m2 OVC
07:52 59.5 °F /  15.3 °C 56.8 °F /  13.8 °C 29.94in /  1013.8hPa South 1.2mph /  1.9km/h   91% 0.00in /  0mm WeatherDisplay:10.37 W/m2 OVC
07:57 59.6 °F /  15.3 °C 56.9 °F /  13.8 °C 29.94in /  1013.8hPa South 1.0mph /  1.6km/h 1.0mph /  1.6km/h 91% 0.00in /  0mm WeatherDisplay:10.37 W/m2 OVC
08:02 59.6 °F /  15.3 °C 56.9 °F /  13.8 °C 29.94in /  1013.8hPa South 2.3mph /  3.7km/h 2.3mph /  3.7km/h 91% 0.00in /  0mm WeatherDisplay:10.37 W/m2 OVC
08:07 59.6 °F /  15.3 °C 56.9 °F /  13.8 °C 29.94in /  1013.8hPa South 2.3mph /  3.7km/h 2.3mph /  3.7km/h 91% 0.00in /  0mm WeatherDisplay:10.37 W/m2 OVC
08:12 59.7 °F /  15.4 °C 57.0 °F /  13.9 °C 29.94in /  1013.8hPa South 2.3mph /  3.7km/h 2.3mph /  3.7km/h 91% 0.00in /  0mm WeatherDisplay:10.37 W/m2 OVC
08:17 59.8 °F /  15.4 °C 57.1 °F /  13.9 °C 29.94in /  1013.8hPa South 2.3mph /  3.7km/h   91% 0.00in /  0mm WeatherDisplay:10.37 W/m2 OVC
08:22 60.0 °F /  15.6 °C 57.3 °F /  14.1 °C 29.95in /  1014.1hPa South 2.3mph /  3.7km/h 2.3mph /  3.7km/h 91% 0.00in /  0mm WeatherDisplay:10.37 W/m2 OVC
08:27 60.0 °F /  15.6 °C 57.3 °F /  14.1 °C 29.95in /  1014.1hPa South 2.3mph /  3.7km/h 2.3mph /  3.7km/h 91% 0.00in /  0mm WeatherDisplay:10.37 W/m2 OVC
08:32 60.2 °F /  15.7 °C 57.5 °F /  14.2 °C 29.95in /  1014.1hPa South 2.3mph /  3.7km/h 2.3mph /  3.7km/h 91% 0.00in /  0mm WeatherDisplay:10.37 W/m2 OVC
08:37 60.3 °F /  15.7 °C 57.6 °F /  14.2 °C 29.95in /  1014.1hPa South 2.3mph /  3.7km/h 2.3mph /  3.7km/h 91% 0.00in /  0mm WeatherDisplay:10.37 W/m2 OVC
08:42 60.4 °F /  15.8 °C 57.7 °F /  14.3 °C 29.95in /  1014.1hPa South 2.3mph /  3.7km/h 2.3mph /  3.7km/h 91% 0.00in /  0mm WeatherDisplay:10.37 W/m2 OVC
08:47 60.3 °F /  15.7 °C 57.6 °F /  14.2 °C 29.95in /  1014.1hPa SW 4.6mph /  7.4km/h 4.6mph /  7.4km/h 91% 0.00in /  0mm WeatherDisplay:10.37 W/m2 OVC
08:52 60.4 °F /  15.8 °C 57.7 °F /  14.3 °C 29.95in /  1014.1hPa SSW 2.3mph /  3.7km/h 2.3mph /  3.7km/h 91% 0.00in /  0mm WeatherDisplay:10.37 W/m2 OVC
08:57 60.4 °F /  15.8 °C 57.7 °F /  14.3 °C 29.95in /  1014.1hPa SSW 2.3mph /  3.7km/h 2.3mph /  3.7km/h 91% 0.00in /  0mm WeatherDisplay:10.37 W/m2 OVC
09:02 60.5 °F /  15.8 °C 57.8 °F /  14.3 °C 29.95in /  1014.1hPa SSW 1.2mph /  1.9km/h 1.2mph /  1.9km/h 91% 0.00in /  0mm WeatherDisplay:10.37 W/m2 OVC
09:07 60.6 °F /  15.9 °C 57.9 °F /  14.4 °C 29.95in /  1014.1hPa SSW 1.2mph /  1.9km/h 1.2mph /  1.9km/h 91% 0.00in /  0mm WeatherDisplay:10.37 W/m2 OVC
09:12 60.6 °F /  15.9 °C 57.9 °F /  14.4 °C 29.95in /  1014.1hPa SSW 2.3mph /  3.7km/h 2.3mph /  3.7km/h 91% 0.00in /  0mm WeatherDisplay:10.37 W/m2 OVC
09:17 60.6 °F /  15.9 °C 57.9 °F /  14.4 °C 29.96in /  1014.4hPa SSW 2.3mph /  3.7km/h 2.3mph /  3.7km/h 91% 0.00in /  0mm WeatherDisplay:10.37 W/m2 OVC
09:22 60.6 °F /  15.9 °C 57.9 °F /  14.4 °C 29.96in /  1014.4hPa SSW 2.0mph /  3.2km/h 2.0mph /  3.2km/h 91% 0.00in /  0mm WeatherDisplay:10.37 W/m2 OVC
09:27 60.6 °F /  15.9 °C 57.9 °F /  14.4 °C 29.96in /  1014.4hPa WNW 3.0mph /  4.8km/h 3.0mph /  4.8km/h 91% 0.00in /  0mm WeatherDisplay:10.37 W/m2 -DZ
09:32 60.6 °F /  15.9 °C 57.9 °F /  14.4 °C 29.96in /  1014.4hPa WNW 2.3mph /  3.7km/h 2.3mph /  3.7km/h 91% 0.00in /  0mm WeatherDisplay:10.37 W/m2 -DZ
09:37 60.7 °F /  15.9 °C 58.0 °F /  14.4 °C 29.96in /  1014.4hPa WNW 2.3mph /  3.7km/h 2.3mph /  3.7km/h 91% 0.00in /  0mm WeatherDisplay:10.37 W/m2 -DZ
09:42 60.7 °F /  15.9 °C 58.0 °F /  14.4 °C 29.96in /  1014.4hPa West 2.3mph /  3.7km/h 2.3mph /  3.7km/h 91% 0.00in /  0mm WeatherDisplay:10.37 W/m2 -DZ
09:47 60.7 °F /  15.9 °C 58.0 °F /  14.4 °C 29.96in /  1014.4hPa West 2.3mph /  3.7km/h 2.3mph /  3.7km/h 91% 0.00in /  0mm WeatherDisplay:10.37 W/m2 OVC
09:52 60.8 °F /  16 °C 58.1 °F /  14.5 °C 29.97in /  1014.8hPa SW 4.0mph /  6.4km/h 4.0mph /  6.4km/h 91% 0.00in /  0mm WeatherDisplay:10.37 W/m2 OVC
09:57 60.7 °F /  15.9 °C 58.0 °F /  14.4 °C 29.97in /  1014.8hPa SW 5.0mph /  8km/h 5.0mph /  8km/h 91% 0.00in /  0mm WeatherDisplay:10.37 W/m2 OVC
10:02 60.7 °F /  15.9 °C 58.0 °F /  14.4 °C 29.97in /  1014.8hPa WSW 4.6mph /  7.4km/h 4.6mph /  7.4km/h 91% 0.00in /  0mm WeatherDisplay:10.37 W/m2 OVC
10:07 60.8 °F /  16 °C 58.1 °F /  14.5 °C 29.97in /  1014.8hPa NW 2.3mph /  3.7km/h 2.3mph /  3.7km/h 91% 0.00in /  0mm WeatherDisplay:10.37 W/m2 OVC
10:12 60.8 °F /  16 °C 58.1 °F /  14.5 °C 29.97in /  1014.8hPa West 3.5mph /  5.6km/h 3.5mph /  5.6km/h 91% 0.00in /  0mm WeatherDisplay:10.37 W/m2 OVC
10:17 60.9 °F /  16.1 °C 58.2 °F /  14.6 °C 29.97in /  1014.8hPa WNW 3.5mph /  5.6km/h 3.5mph /  5.6km/h 91% 0.00in /  0mm WeatherDisplay:10.37 W/m2 OVC
10:22 60.9 °F /  16.1 °C 58.2 °F /  14.6 °C 29.97in /  1014.8hPa WNW 2.3mph /  3.7km/h 2.3mph /  3.7km/h 91% 0.00in /  0mm WeatherDisplay:10.37 W/m2 OVC
10:27 60.9 °F /  16.1 °C 58.2 °F /  14.6 °C 29.97in /  1014.8hPa WNW 1.2mph /  1.9km/h 1.2mph /  1.9km/h 91% 0.00in /  0mm WeatherDisplay:10.37 W/m2 OVC
10:32 61.0 °F /  16.1 °C 58.3 °F /  14.6 °C 29.97in /  1014.8hPa WSW 1.2mph /  1.9km/h 1.2mph /  1.9km/h 91% 0.00in /  0mm WeatherDisplay:10.37 W/m2 OVC
10:37 61.0 °F /  16.1 °C 58.3 °F /  14.6 °C 29.98in /  1015.1hPa WSW 2.3mph /  3.7km/h 2.3mph /  3.7km/h 91% 0.00in /  0mm WeatherDisplay:10.37 W/m2 OVC
10:42 61.1 °F /  16.2 °C 58.4 °F /  14.7 °C 29.98in /  1015.1hPa WSW 1.2mph /  1.9km/h 1.2mph /  1.9km/h 91% 0.00in /  0mm WeatherDisplay:10.37 W/m2 OVC
10:47 61.1 °F /  16.2 °C 58.4 °F /  14.7 °C 29.98in /  1015.1hPa North 3.5mph /  5.6km/h 3.5mph /  5.6km/h 91% 0.00in /  0mm WeatherDisplay:10.37 W/m2 OVC
10:52 61.2 °F /  16.2 °C 58.5 °F /  14.7 °C 29.98in /  1015.1hPa NNW 2.3mph /  3.7km/h 2.3mph /  3.7km/h 91% 0.00in /  0mm WeatherDisplay:10.37 W/m2 OVC
10:57 61.2 °F /  16.2 °C 58.5 °F /  14.7 °C 29.98in /  1015.1hPa NNW 2.3mph /  3.7km/h 2.3mph /  3.7km/h 91% 0.00in /  0mm WeatherDisplay:10.37 W/m2 OVC
11:02 61.1 °F /  16.2 °C 58.4 °F /  14.7 °C 29.97in /  1014.8hPa SW 1.2mph /  1.9km/h 1.2mph /  1.9km/h 91% 0.00in /  0mm WeatherDisplay:10.37 W/m2 OVC
11:07 61.2 °F /  16.2 °C 58.5 °F /  14.7 °C 29.97in /  1014.8hPa WSW 2.3mph /  3.7km/h 2.3mph /  3.7km/h 91% 0.00in /  0mm WeatherDisplay:10.37 W/m2 OVC
11:12 61.3 °F /  16.3 °C 58.6 °F /  14.8 °C 29.97in /  1014.8hPa South 2.3mph /  3.7km/h 2.3mph /  3.7km/h 91% 0.00in /  0mm WeatherDisplay:10.37 W/m2 OVC
11:17 61.4 °F /  16.3 °C 58.7 °F /  14.8 °C 29.97in /  1014.8hPa WSW 3.5mph /  5.6km/h 3.5mph /  5.6km/h 91% 0.00in /  0mm WeatherDisplay:10.37 W/m2 OVC
11:22 61.5 °F /  16.4 °C 58.8 °F /  14.9 °C 29.97in /  1014.8hPa WSW 3.5mph /  5.6km/h 3.5mph /  5.6km/h 91% 0.00in /  0mm WeatherDisplay:10.37 W/m2 OVC
11:27 61.7 °F /  16.5 °C 59.0 °F /  15 °C 29.97in /  1014.8hPa SW 3.5mph /  5.6km/h 3.5mph /  5.6km/h 91% 0.00in /  0mm WeatherDisplay:10.37 W/m2 OVC
11:32 61.8 °F /  16.6 °C 59.1 °F /  15.1 °C 29.97in /  1014.8hPa SW 3.5mph /  5.6km/h 3.5mph /  5.6km/h 91% 0.00in /  0mm WeatherDisplay:10.37 W/m2 OVC
11:37 61.8 °F /  16.6 °C 59.1 °F /  15.1 °C 29.97in /  1014.8hPa SW 4.6mph /  7.4km/h 4.6mph /  7.4km/h 91% 0.00in /  0mm WeatherDisplay:10.37 W/m2 OVC
11:42 62.0 °F /  16.7 °C 59.3 °F /  15.2 °C 29.97in /  1014.8hPa ESE 4.6mph /  7.4km/h 4.6mph /  7.4km/h 91% 0.00in /  0mm WeatherDisplay:10.37 W/m2 OVC
11:47 62.0 °F /  16.7 °C 59.0 °F /  15 °C 29.97in /  1014.8hPa SW 4.6mph /  7.4km/h 4.6mph /  7.4km/h 90% 0.00in /  0mm WeatherDisplay:10.37 W/m2 OVC
11:52 62.1 °F /  16.7 °C 59.4 °F /  15.2 °C 29.97in /  1014.8hPa SW 3.5mph /  5.6km/h 3.5mph /  5.6km/h 91% 0.00in /  0mm WeatherDisplay:10.37 W/m2 OVC
11:57 62.1 °F /  16.7 °C 59.4 °F /  15.2 °C 29.97in /  1014.8hPa SSW 3.5mph /  5.6km/h 3.5mph /  5.6km/h 91% 0.00in /  0mm WeatherDisplay:10.37 W/m2 OVC
12:02 62.1 °F /  16.7 °C 59.4 °F /  15.2 °C 29.97in /  1014.8hPa SW 4.6mph /  7.4km/h 4.6mph /  7.4km/h 91% 0.00in /  0mm WeatherDisplay:10.37 W/m2 OVC
12:07 62.1 °F /  16.7 °C 59.4 °F /  15.2 °C 29.97in /  1014.8hPa West 3.5mph /  5.6km/h 3.5mph /  5.6km/h 91% 0.00in /  0mm WeatherDisplay:10.37 W/m2 OVC
12:12 62.1 °F /  16.7 °C 59.4 °F /  15.2 °C 29.97in /  1014.8hPa SW 3.5mph /  5.6km/h 3.5mph /  5.6km/h 91% 0.00in /  0mm WeatherDisplay:10.37 W/m2 OVC
12:17 62.2 °F /  16.8 °C 59.5 °F /  15.3 °C 29.97in /  1014.8hPa South 3.5mph /  5.6km/h 3.5mph /  5.6km/h 91% 0.00in /  0mm WeatherDisplay:10.37 W/m2 OVC
12:22 62.3 °F /  16.8 °C 59.6 °F /  15.3 °C 29.97in /  1014.8hPa SW 3.0mph /  4.8km/h 3.0mph /  4.8km/h 91% 0.00in /  0mm WeatherDisplay:10.37 W/m2 OVC
12:27 62.3 °F /  16.8 °C 59.3 °F /  15.2 °C 29.97in /  1014.8hPa SSW 3.5mph /  5.6km/h 3.5mph /  5.6km/h 90% 0.00in /  0mm WeatherDisplay:10.37 W/m2 OVC
12:32 62.2 °F /  16.8 °C 59.5 °F /  15.3 °C 29.97in /  1014.8hPa SSW 3.5mph /  5.6km/h 3.5mph /  5.6km/h 91% 0.00in /  0mm WeatherDisplay:10.37 W/m2 OVC
12:37 62.2 °F /  16.8 °C 59.5 °F /  15.3 °C 29.97in /  1014.8hPa SSW 3.5mph /  5.6km/h 3.5mph /  5.6km/h 91% 0.00in /  0mm WeatherDisplay:10.37 W/m2 OVC
12:42 62.3 °F /  16.8 °C 59.6 °F /  15.3 °C 29.97in /  1014.8hPa South 3.5mph /  5.6km/h 3.5mph /  5.6km/h 91% 0.00in /  0mm WeatherDisplay:10.37 W/m2 OVC
12:47 62.4 °F /  16.9 °C 59.7 °F /  15.4 °C 29.97in /  1014.8hPa SW 3.5mph /  5.6km/h 3.5mph /  5.6km/h 91% 0.00in /  0mm WeatherDisplay:10.37 W/m2 OVC
12:52 62.4 °F /  16.9 °C 59.7 °F /  15.4 °C 29.97in /  1014.8hPa SW 3.5mph /  5.6km/h 3.5mph /  5.6km/h 91% 0.00in /  0mm WeatherDisplay:10.37 W/m2 OVC
12:57 62.4 °F /  16.9 °C 59.7 °F /  15.4 °C 29.97in /  1014.8hPa SW 3.5mph /  5.6km/h 3.5mph /  5.6km/h 91% 0.00in /  0mm WeatherDisplay:10.37 W/m2 OVC
13:02 62.4 °F /  16.9 °C 59.7 °F /  15.4 °C 29.97in /  1014.8hPa WSW 3.5mph /  5.6km/h 3.5mph /  5.6km/h 91% 0.00in /  0mm WeatherDisplay:10.37 W/m2 OVC
13:07 62.4 °F /  16.9 °C 59.7 °F /  15.4 °C 29.97in /  1014.8hPa SW 5.8mph /  9.3km/h 5.8mph /  9.3km/h 91% 0.00in /  0mm WeatherDisplay:10.37 W/m2 OVC
13:12 62.5 °F /  16.9 °C 59.8 °F /  15.4 °C 29.97in /  1014.8hPa South 5.8mph /  9.3km/h 5.8mph /  9.3km/h 91% 0.00in /  0mm WeatherDisplay:10.37 W/m2 OVC
13:17 62.6 °F /  17 °C 59.9 °F /  15.5 °C 29.97in /  1014.8hPa SW 3.5mph /  5.6km/h 3.5mph /  5.6km/h 91% 0.00in /  0mm WeatherDisplay:10.37 W/m2 OVC
13:22 62.7 °F /  17.1 °C 60.0 °F /  15.6 °C 29.97in /  1014.8hPa South 6.0mph /  9.7km/h 6.0mph /  9.7km/h 91% 0.00in /  0mm WeatherDisplay:10.37 W/m2 OVC
13:27 62.8 °F /  17.1 °C 60.1 °F /  15.6 °C 29.97in /  1014.8hPa SW 3.5mph /  5.6km/h 3.5mph /  5.6km/h 91% 0.00in /  0mm WeatherDisplay:10.37 W/m2 OVC
13:32 62.9 °F /  17.2 °C 60.2 °F /  15.7 °C 29.97in /  1014.8hPa SW 3.5mph /  5.6km/h 3.5mph /  5.6km/h 91% 0.00in /  0mm WeatherDisplay:10.37 W/m2 OVC
13:37 62.9 °F /  17.2 °C 60.2 °F /  15.7 °C 29.97in /  1014.8hPa SW 5.8mph /  9.3km/h 5.8mph /  9.3km/h 91% 0.00in /  0mm WeatherDisplay:10.37 W/m2 OVC
13:42 62.8 °F /  17.1 °C 60.1 °F /  15.6 °C 29.97in /  1014.8hPa SSW 5.8mph /  9.3km/h 5.8mph /  9.3km/h 91% 0.00in /  0mm WeatherDisplay:10.37 W/m2 OVC
13:47 62.9 °F /  17.2 °C 60.2 °F /  15.7 °C 29.97in /  1014.8hPa SW 4.6mph /  7.4km/h 4.6mph /  7.4km/h 91% 0.00in /  0mm WeatherDisplay:10.37 W/m2 -DZ
13:52 62.9 °F /  17.2 °C 60.2 °F /  15.7 °C 29.97in /  1014.8hPa WSW 5.8mph /  9.3km/h 5.8mph /  9.3km/h 91% 0.00in /  0mm WeatherDisplay:10.37 W/m2 -DZ
13:57 62.9 °F /  17.2 °C 60.2 °F /  15.7 °C 29.97in /  1014.8hPa SW 5.8mph /  9.3km/h 5.8mph /  9.3km/h 91% 0.00in /  0mm WeatherDisplay:10.37 W/m2 -DZ
14:02 63.0 °F /  17.2 °C 60.3 °F /  15.7 °C 29.97in /  1014.8hPa SSW 5.8mph /  9.3km/h 5.8mph /  9.3km/h 91% 0.00in /  0mm WeatherDisplay:10.37 W/m2 -DZ
14:07 63.1 °F /  17.3 °C 60.4 °F /  15.8 °C 29.97in /  1014.8hPa SW 4.6mph /  7.4km/h 4.6mph /  7.4km/h 91% 0.00in /  0mm WeatherDisplay:10.37 W/m2 OVC
14:12 63.3 °F /  17.4 °C 60.6 °F /  15.9 °C 29.97in /  1014.8hPa SW 4.6mph /  7.4km/h 4.6mph /  7.4km/h 91% 0.00in /  0mm WeatherDisplay:10.37 W/m2 OVC
14:17 63.5 °F /  17.5 °C 60.8 °F /  16 °C 29.97in /  1014.8hPa SW 4.0mph /  6.4km/h 4.0mph /  6.4km/h 91% 0.00in /  0mm WeatherDisplay:10.37 W/m2 OVC
14:22 63.6 °F /  17.6 °C 60.9 °F /  16.1 °C 29.97in /  1014.8hPa WSW 3.5mph /  5.6km/h 3.5mph /  5.6km/h 91% 0.00in /  0mm WeatherDisplay:10.37 W/m2 OVC
14:27 63.7 °F /  17.6 °C 61.0 °F /  16.1 °C 29.97in /  1014.8hPa SW 4.6mph /  7.4km/h 4.6mph /  7.4km/h 91% 0.00in /  0mm WeatherDisplay:10.37 W/m2 -DZ
14:32 63.9 °F /  17.7 °C 61.2 °F /  16.2 °C 29.97in /  1014.8hPa WSW 4.6mph /  7.4km/h 4.6mph /  7.4km/h 91% 0.00in /  0mm WeatherDisplay:10.37 W/m2 -DZ
14:37 63.9 °F /  17.7 °C 60.9 °F /  16.1 °C 29.97in /  1014.8hPa SW 6.9mph /  11.1km/h 6.9mph /  11.1km/h 90% 0.00in /  0mm WeatherDisplay:10.37 W/m2 -DZ
14:42 63.8 °F /  17.7 °C 60.8 °F /  16 °C 29.97in /  1014.8hPa SW 6.9mph /  11.1km/h 6.9mph /  11.1km/h 90% 0.00in /  0mm WeatherDisplay:10.37 W/m2 -DZ
14:47 63.8 °F /  17.7 °C 60.8 °F /  16 °C 29.97in /  1014.8hPa SSW 6.9mph /  11.1km/h 6.9mph /  11.1km/h 90% 0.00in /  0mm WeatherDisplay:10.37 W/m2 OVC
14:52 63.7 °F /  17.6 °C 60.7 °F /  15.9 °C 29.97in /  1014.8hPa SW 5.8mph /  9.3km/h 5.8mph /  9.3km/h 90% 0.00in /  0mm WeatherDisplay:10.37 W/m2 OVC
14:57 63.5 °F /  17.5 °C 60.5 °F /  15.8 °C 29.97in /  1014.8hPa WSW 6.0mph /  9.7km/h 6.0mph /  9.7km/h 90% 0.00in /  0mm WeatherDisplay:10.37 W/m2 OVC
15:02 63.4 °F /  17.4 °C 60.7 °F /  15.9 °C 29.97in /  1014.8hPa SSW 2.3mph /  3.7km/h 2.3mph /  3.7km/h 91% 0.00in /  0mm WeatherDisplay:10.37 W/m2 OVC
15:07 63.3 °F /  17.4 °C 60.6 °F /  15.9 °C 29.97in /  1014.8hPa South 4.6mph /  7.4km/h 4.6mph /  7.4km/h 91% 0.00in /  0mm WeatherDisplay:10.37 W/m2 OVC
15:12 63.3 °F /  17.4 °C 60.6 °F /  15.9 °C 29.97in /  1014.8hPa SW 3.5mph /  5.6km/h 3.5mph /  5.6km/h 91% 0.00in /  0mm WeatherDisplay:10.37 W/m2 OVC
15:17 63.5 °F /  17.5 °C 60.8 °F /  16 °C 29.97in /  1014.8hPa SW 4.6mph /  7.4km/h 4.6mph /  7.4km/h 91% 0.00in /  0mm WeatherDisplay:10.37 W/m2 OVC
15:22 63.6 °F /  17.6 °C 60.9 °F /  16.1 °C 29.97in /  1014.8hPa SW 4.6mph /  7.4km/h 4.6mph /  7.4km/h 91% 0.00in /  0mm WeatherDisplay:10.37 W/m2 OVC
15:27 63.7 °F /  17.6 °C 61.0 °F /  16.1 °C 29.97in /  1014.8hPa West 3.5mph /  5.6km/h 3.5mph /  5.6km/h 91% 0.00in /  0mm WeatherDisplay:10.37 W/m2 OVC
15:32 63.7 °F /  17.6 °C 61.0 °F /  16.1 °C 29.97in /  1014.8hPa SW 4.6mph /  7.4km/h 4.6mph /  7.4km/h 91% 0.00in /  0mm WeatherDisplay:10.37 W/m2 OVC
15:37 63.8 °F /  17.7 °C 61.1 °F /  16.2 °C 29.97in /  1014.8hPa SW 6.0mph /  9.7km/h 6.0mph /  9.7km/h 91% 0.00in /  0mm WeatherDisplay:10.37 W/m2 OVC
15:42 63.9 °F /  17.7 °C 60.9 °F /  16.1 °C 29.97in /  1014.8hPa WSW 5.8mph /  9.3km/h 5.8mph /  9.3km/h 90% 0.00in /  0mm WeatherDisplay:10.37 W/m2 OVC
15:47 64.0 °F /  17.8 °C 61.3 °F /  16.3 °C 29.97in /  1014.8hPa WSW 5.8mph /  9.3km/h 5.8mph /  9.3km/h 91% 0.00in /  0mm WeatherDisplay:10.37 W/m2 OVC
15:52 64.1 °F /  17.8 °C 61.1 °F /  16.2 °C 29.97in /  1014.8hPa SSW 4.6mph /  7.4km/h 4.6mph /  7.4km/h 90% 0.00in /  0mm WeatherDisplay:10.37 W/m2 OVC
15:57 64.0 °F /  17.8 °C 61.0 °F /  16.1 °C 29.97in /  1014.8hPa SSW 5.8mph /  9.3km/h 5.8mph /  9.3km/h 90% 0.00in /  0mm WeatherDisplay:10.37 W/m2 OVC
16:02 64.0 °F /  17.8 °C 61.0 °F /  16.1 °C 29.97in /  1014.8hPa South 5.8mph /  9.3km/h 5.8mph /  9.3km/h 90% 0.00in /  0mm WeatherDisplay:10.37 W/m2 OVC
16:07 64.1 °F /  17.8 °C 61.1 °F /  16.2 °C 29.98in /  1015.1hPa SW 5.0mph /  8km/h 5.0mph /  8km/h 90% 0.00in /  0mm WeatherDisplay:10.37 W/m2 OVC
16:12 64.1 °F /  17.8 °C 61.1 °F /  16.2 °C 29.98in /  1015.1hPa SW 9.2mph /  14.8km/h 9.2mph /  14.8km/h 90% 0.00in /  0mm WeatherDisplay:10.37 W/m2 OVC
16:17 63.9 °F /  17.7 °C 60.9 °F /  16.1 °C 29.98in /  1015.1hPa SW 9.2mph /  14.8km/h 9.2mph /  14.8km/h 90% 0.00in /  0mm WeatherDisplay:10.37 W/m2 OVC
16:22 63.9 °F /  17.7 °C 60.9 °F /  16.1 °C 29.97in /  1014.8hPa WSW 3.5mph /  5.6km/h 3.5mph /  5.6km/h 90% 0.00in /  0mm WeatherDisplay:10.37 W/m2 OVC
16:27 63.9 °F /  17.7 °C 60.9 °F /  16.1 °C 29.98in /  1015.1hPa SSW 3.5mph /  5.6km/h 3.5mph /  5.6km/h 90% 0.00in /  0mm WeatherDisplay:10.37 W/m2 OVC
16:32 63.9 °F /  17.7 °C 60.9 °F /  16.1 °C 29.98in /  1015.1hPa SSW 3.5mph /  5.6km/h 3.5mph /  5.6km/h 90% 0.00in /  0mm WeatherDisplay:10.37 W/m2 OVC
16:37 63.8 °F /  17.7 °C 60.8 °F /  16 °C 29.98in /  1015.1hPa SW 3.5mph /  5.6km/h 3.5mph /  5.6km/h 90% 0.00in /  0mm WeatherDisplay:10.37 W/m2 OVC
16:42 63.8 °F /  17.7 °C 60.8 °F /  16 °C 29.98in /  1015.1hPa WSW 3.5mph /  5.6km/h 3.5mph /  5.6km/h 90% 0.00in /  0mm WeatherDisplay:10.37 W/m2 OVC
16:47 64.0 °F /  17.8 °C 61.0 °F /  16.1 °C 29.98in /  1015.1hPa SSW 3.5mph /  5.6km/h 3.5mph /  5.6km/h 90% 0.00in /  0mm WeatherDisplay:10.37 W/m2 OVC
16:52 64.2 °F /  17.9 °C 61.2 °F /  16.2 °C 29.98in /  1015.1hPa SSW 3.5mph /  5.6km/h 3.5mph /  5.6km/h 90% 0.00in /  0mm WeatherDisplay:10.37 W/m2 OVC
16:57 64.4 °F /  18 °C 61.4 °F /  16.3 °C 29.98in /  1015.1hPa SSW 3.5mph /  5.6km/h 3.5mph /  5.6km/h 90% 0.00in /  0mm WeatherDisplay:10.37 W/m2 OVC
17:02 64.5 °F /  18.1 °C 61.1 °F /  16.2 °C 29.98in /  1015.1hPa WSW 4.6mph /  7.4km/h 4.6mph /  7.4km/h 89% 0.00in /  0mm WeatherDisplay:10.37 W/m2 OVC
17:07 64.5 °F /  18.1 °C 61.1 °F /  16.2 °C 29.98in /  1015.1hPa SSW 4.6mph /  7.4km/h 4.6mph /  7.4km/h 89% 0.00in /  0mm WeatherDisplay:10.37 W/m2 OVC
17:12 64.5 °F /  18.1 °C 61.1 °F /  16.2 °C 29.98in /  1015.1hPa WSW 4.6mph /  7.4km/h 4.6mph /  7.4km/h 89% 0.00in /  0mm WeatherDisplay:10.37 W/m2 OVC
17:17 64.5 °F /  18.1 °C 61.1 °F /  16.2 °C 29.98in /  1015.1hPa West 3.5mph /  5.6km/h 3.5mph /  5.6km/h 89% 0.00in /  0mm WeatherDisplay:10.37 W/m2 OVC
17:22 64.5 °F /  18.1 °C 61.1 °F /  16.2 °C 29.98in /  1015.1hPa WSW 3.5mph /  5.6km/h 3.5mph /  5.6km/h 89% 0.00in /  0mm WeatherDisplay:10.37 W/m2 OVC
17:27 64.6 °F /  18.1 °C 61.2 °F /  16.2 °C 29.98in /  1015.1hPa SW 3.5mph /  5.6km/h 3.5mph /  5.6km/h 89% 0.00in /  0mm WeatherDisplay:10.37 W/m2 OVC
17:32 64.5 °F /  18.1 °C 61.1 °F /  16.2 °C 29.98in /  1015.1hPa WSW 3.5mph /  5.6km/h 3.5mph /  5.6km/h 89% 0.00in /  0mm WeatherDisplay:10.37 W/m2 OVC
17:37 64.5 °F /  18.1 °C 61.5 °F /  16.4 °C 29.98in /  1015.1hPa WSW 2.3mph /  3.7km/h 2.3mph /  3.7km/h 90% 0.00in /  0mm WeatherDisplay:10.37 W/m2 OVC
17:42 64.5 °F /  18.1 °C 61.5 °F /  16.4 °C 29.98in /  1015.1hPa WSW 2.3mph /  3.7km/h 2.3mph /  3.7km/h 90% 0.00in /  0mm WeatherDisplay:10.37 W/m2 OVC
17:47 64.5 °F /  18.1 °C 61.5 °F /  16.4 °C 29.98in /  1015.1hPa WSW 2.3mph /  3.7km/h 2.3mph /  3.7km/h 90% 0.00in /  0mm WeatherDisplay:10.37 W/m2 OVC
17:52 64.5 °F /  18.1 °C 61.5 °F /  16.4 °C 29.98in /  1015.1hPa WSW 2.3mph /  3.7km/h 2.3mph /  3.7km/h 90% 0.00in /  0mm WeatherDisplay:10.37 W/m2 OVC
17:57 64.4 °F /  18 °C 61.4 °F /  16.3 °C 29.98in /  1015.1hPa WSW 2.3mph /  3.7km/h 2.3mph /  3.7km/h 90% 0.00in /  0mm WeatherDisplay:10.37 W/m2 OVC
18:02 64.3 °F /  17.9 °C 61.3 °F /  16.3 °C 29.98in /  1015.1hPa WSW 1.2mph /  1.9km/h 1.2mph /  1.9km/h 90% 0.00in /  0mm WeatherDisplay:10.37 W/m2 OVC
18:07 64.3 °F /  17.9 °C 61.6 °F /  16.4 °C 29.98in /  1015.1hPa WSW 1.2mph /  1.9km/h 1.2mph /  1.9km/h 91% 0.00in /  0mm WeatherDisplay:10.37 W/m2 OVC
18:12 64.2 °F /  17.9 °C 61.5 °F /  16.4 °C 29.98in /  1015.1hPa WSW 1.2mph /  1.9km/h 1.2mph /  1.9km/h 91% 0.00in /  0mm WeatherDisplay:10.37 W/m2 OVC
18:17 64.3 °F /  17.9 °C 61.6 °F /  16.4 °C 29.98in /  1015.1hPa WSW 1.2mph /  1.9km/h   91% 0.00in /  0mm WeatherDisplay:10.37 W/m2 OVC
18:22 64.4 °F /  18 °C 61.4 °F /  16.3 °C 29.98in /  1015.1hPa WSW 3.5mph /  5.6km/h 3.5mph /  5.6km/h 90% 0.00in /  0mm WeatherDisplay:10.37 W/m2 OVC
18:27 64.5 °F /  18.1 °C 61.5 °F /  16.4 °C 29.98in /  1015.1hPa WSW 3.5mph /  5.6km/h 3.5mph /  5.6km/h 90% 0.00in /  0mm WeatherDisplay:10.37 W/m2 OVC
18:32 64.8 °F /  18.2 °C 61.8 °F /  16.6 °C 29.98in /  1015.1hPa South 3.5mph /  5.6km/h 3.5mph /  5.6km/h 90% 0.00in /  0mm WeatherDisplay:10.37 W/m2 OVC
18:37 64.8 °F /  18.2 °C 61.8 °F /  16.6 °C 29.98in /  1015.1hPa WSW 3.5mph /  5.6km/h 3.5mph /  5.6km/h 90% 0.00in /  0mm WeatherDisplay:10.37 W/m2 OVC
18:42 64.9 °F /  18.3 °C 61.5 °F /  16.4 °C 29.98in /  1015.1hPa SSW 3.5mph /  5.6km/h 3.5mph /  5.6km/h 89% 0.00in /  0mm WeatherDisplay:10.37 W/m2 OVC
18:47 64.8 °F /  18.2 °C 61.4 °F /  16.3 °C 29.99in /  1015.5hPa WSW 3.5mph /  5.6km/h 3.5mph /  5.6km/h 89% 0.00in /  0mm WeatherDisplay:10.37 W/m2 OVC
18:52 64.7 °F /  18.2 °C 61.7 °F /  16.5 °C 29.99in /  1015.5hPa SSW 3.5mph /  5.6km/h 3.5mph /  5.6km/h 90% 0.00in /  0mm WeatherDisplay:10.37 W/m2 OVC
18:57 64.7 °F /  18.2 °C 61.7 °F /  16.5 °C 29.99in /  1015.5hPa SW 3.5mph /  5.6km/h 3.5mph /  5.6km/h 90% 0.00in /  0mm WeatherDisplay:10.37 W/m2 OVC
19:02 64.8 °F /  18.2 °C 61.8 °F /  16.6 °C 29.99in /  1015.5hPa SSW 2.3mph /  3.7km/h 2.3mph /  3.7km/h 90% 0.00in /  0mm WeatherDisplay:10.37 W/m2 OVC
19:07 64.8 °F /  18.2 °C 61.4 °F /  16.3 °C 29.99in /  1015.5hPa SW 2.3mph /  3.7km/h 2.3mph /  3.7km/h 89% 0.00in /  0mm WeatherDisplay:10.37 W/m2 OVC
19:12 64.7 °F /  18.2 °C 61.7 °F /  16.5 °C 29.99in /  1015.5hPa SW 2.3mph /  3.7km/h 2.3mph /  3.7km/h 90% 0.00in /  0mm WeatherDisplay:10.37 W/m2 OVC
19:14 64.7 °F /  18.2 °C 61.7 °F /  16.5 °C 29.99in /  1015.5hPa SW 2.3mph /  3.7km/h 2.3mph /  3.7km/h 90% 0.00in /  0mm WeatherDisplay:10.37 W/m2 OVC
19:19 64.7 °F /  18.2 °C 61.7 °F /  16.5 °C 30.00in /  1015.8hPa SW 2.3mph /  3.7km/h 2.3mph /  3.7km/h 90% 0.00in /  0mm WeatherDisplay:10.37 W/m2 OVC
19:24 64.6 °F /  18.1 °C 61.6 °F /  16.4 °C 30.00in /  1015.8hPa SW 2.3mph /  3.7km/h 2.3mph /  3.7km/h 90% 0.00in /  0mm WeatherDisplay:10.37 W/m2 OVC
19:29 64.5 °F /  18.1 °C 61.5 °F /  16.4 °C 30.00in /  1015.8hPa SW 1.2mph /  1.9km/h 1.2mph /  1.9km/h 90% 0.00in /  0mm WeatherDisplay:10.37 W/m2 OVC
19:34 64.4 °F /  18 °C 61.4 °F /  16.3 °C 30.00in /  1015.8hPa SW 1.0mph /  1.6km/h   90% 0.00in /  0mm WeatherDisplay:10.37 W/m2 OVC
19:39 64.3 °F /  17.9 °C 61.3 °F /  16.3 °C 30.00in /  1015.8hPa Calm     90% 0.00in /  0mm WeatherDisplay:10.37 W/m2 OVC
19:44 64.2 °F /  17.9 °C 61.2 °F /  16.2 °C 30.00in /  1015.8hPa Calm     90% 0.00in /  0mm WeatherDisplay:10.37 W/m2 OVC
19:49 64.0 °F /  17.8 °C 61.0 °F /  16.1 °C 30.00in /  1015.8hPa SW 1.2mph /  1.9km/h 1.2mph /  1.9km/h 90% 0.00in /  0mm WeatherDisplay:10.37 W/m2 OVC
19:54 63.8 °F /  17.7 °C 60.8 °F /  16 °C 30.00in /  1015.8hPa SW 1.2mph /  1.9km/h   90% 0.00in /  0mm WeatherDisplay:10.37 W/m2 OVC
19:59 63.6 °F /  17.6 °C 60.6 °F /  15.9 °C 30.00in /  1015.8hPa Calm     90% 0.00in /  0mm WeatherDisplay:10.37 W/m2 OVC
20:04 63.4 °F /  17.4 °C 60.4 °F /  15.8 °C 30.00in /  1015.8hPa Calm     90% 0.00in /  0mm WeatherDisplay:10.37 W/m2 OVC
20:09 63.1 °F /  17.3 °C 60.4 °F /  15.8 °C 30.00in /  1015.8hPa Calm     91% 0.00in /  0mm WeatherDisplay:10.37 W/m2 OVC
20:14 62.9 °F /  17.2 °C 60.2 °F /  15.7 °C 30.00in /  1015.8hPa Calm     91% 0.00in /  0mm WeatherDisplay:10.37 W/m2 OVC
20:19 62.6 °F /  17 °C 59.9 °F /  15.5 °C 30.01in /  1016.1hPa Calm     91% 0.00in /  0mm WeatherDisplay:10.37 W/m2 OVC
20:24 62.4 °F /  16.9 °C 59.7 °F /  15.4 °C 30.01in /  1016.1hPa Calm     91% 0.00in /  0mm WeatherDisplay:10.37 W/m2 BKN
20:29 62.3 °F /  16.8 °C 59.6 °F /  15.3 °C 30.01in /  1016.1hPa Calm     91% 0.00in /  0mm WeatherDisplay:10.37 W/m2 BKN
20:34 62.2 °F /  16.8 °C 59.5 °F /  15.3 °C 30.01in /  1016.1hPa Calm     91% 0.00in /  0mm WeatherDisplay:10.37 W/m2 BKN
20:39 62.0 °F /  16.7 °C 59.3 °F /  15.2 °C 30.01in /  1016.1hPa Calm     91% 0.00in /  0mm WeatherDisplay:10.37 W/m2 BKN
20:44 61.9 °F /  16.6 °C 59.2 °F /  15.1 °C 30.02in /  1016.5hPa Calm     91% 0.00in /  0mm WeatherDisplay:10.37 W/m2 OVC
20:49 61.7 °F /  16.5 °C 59.0 °F /  15 °C 30.02in /  1016.5hPa Calm     91% 0.00in /  0mm WeatherDisplay:10.37 W/m2 OVC
20:54 61.5 °F /  16.4 °C 58.8 °F /  14.9 °C 30.02in /  1016.5hPa Calm     91% 0.00in /  0mm WeatherDisplay:10.37 W/m2 OVC
20:59 61.3 °F /  16.3 °C 58.6 °F /  14.8 °C 30.02in /  1016.5hPa Calm     91% 0.00in /  0mm WeatherDisplay:10.37 W/m2 OVC
21:04 61.1 °F /  16.2 °C 58.4 °F /  14.7 °C 30.02in /  1016.5hPa Calm     91% 0.00in /  0mm WeatherDisplay:10.37 W/m2 OVC
21:09 60.9 °F /  16.1 °C 58.2 °F /  14.6 °C 30.02in /  1016.5hPa Calm     91% 0.00in /  0mm WeatherDisplay:10.37 W/m2 OVC
21:14 60.8 °F /  16 °C 58.1 °F /  14.5 °C 30.02in /  1016.5hPa Calm     91% 0.00in /  0mm WeatherDisplay:10.37 W/m2 OVC
21:19 60.6 °F /  15.9 °C 57.9 °F /  14.4 °C 30.02in /  1016.5hPa Calm     91% 0.00in /  0mm WeatherDisplay:10.37 W/m2 OVC
21:24 60.4 °F /  15.8 °C 58.0 °F /  14.4 °C 30.03in /  1016.8hPa Calm     92% 0.00in /  0mm WeatherDisplay:10.37 W/m2 OVC
21:29 60.3 °F /  15.7 °C 57.9 °F /  14.4 °C 30.03in /  1016.8hPa SW 1.2mph /  1.9km/h 1.2mph /  1.9km/h 92% 0.00in /  0mm WeatherDisplay:10.37 W/m2 OVC
21:34 60.1 °F /  15.6 °C 57.4 °F /  14.1 °C 30.03in /  1016.8hPa SW 1.2mph /  1.9km/h   91% 0.00in /  0mm WeatherDisplay:10.37 W/m2 OVC
21:39 59.9 °F /  15.5 °C 57.2 °F /  14 °C 30.03in /  1016.8hPa Calm     91% 0.00in /  0mm WeatherDisplay:10.37 W/m2 OVC
21:44 59.8 °F /  15.4 °C 57.4 °F /  14.1 °C 30.03in /  1016.8hPa Calm     92% 0.00in /  0mm WeatherDisplay:10.37 W/m2 BKN
21:49 59.6 °F /  15.3 °C 57.2 °F /  14 °C 30.03in /  1016.8hPa Calm     92% 0.00in /  0mm WeatherDisplay:10.37 W/m2 BKN
21:54 59.5 °F /  15.3 °C 56.8 °F /  13.8 °C 30.03in /  1016.8hPa Calm     91% 0.00in /  0mm WeatherDisplay:10.37 W/m2 BKN
21:59 59.3 °F /  15.2 °C 56.6 °F /  13.7 °C 30.03in /  1016.8hPa Calm     91% 0.00in /  0mm WeatherDisplay:10.37 W/m2 BKN
22:04 59.2 °F /  15.1 °C 56.8 °F /  13.8 °C 30.03in /  1016.8hPa Calm     92% 0.00in /  0mm WeatherDisplay:10.37 W/m2 BKN
22:09 59.0 °F /  15 °C 56.6 °F /  13.7 °C 30.03in /  1016.8hPa SW 1.2mph /  1.9km/h   92% 0.00in /  0mm WeatherDisplay:10.37 W/m2 BKN
22:14 58.8 °F /  14.9 °C 56.1 °F /  13.4 °C 30.03in /  1016.8hPa SW 1.2mph /  1.9km/h   91% 0.00in /  0mm WeatherDisplay:10.37 W/m2 BKN
22:19 58.6 °F /  14.8 °C 56.2 °F /  13.4 °C 30.04in /  1017.2hPa Calm     92% 0.00in /  0mm WeatherDisplay:10.37 W/m2 BKN
22:24 58.4 °F /  14.7 °C 56.0 °F /  13.3 °C 30.03in /  1016.8hPa Calm     92% 0.00in /  0mm WeatherDisplay:10.37 W/m2 OVC
22:29 58.3 °F /  14.6 °C 55.9 °F /  13.3 °C 30.04in /  1017.2hPa Calm     92% 0.00in /  0mm WeatherDisplay:10.37 W/m2 OVC
22:34 58.2 °F /  14.6 °C 55.8 °F /  13.2 °C 30.04in /  1017.2hPa Calm     92% 0.00in /  0mm WeatherDisplay:10.37 W/m2 OVC
22:39 58.2 °F /  14.6 °C 55.8 °F /  13.2 °C 30.04in /  1017.2hPa Calm     92% 0.00in /  0mm WeatherDisplay:10.37 W/m2 OVC
22:44 58.2 °F /  14.6 °C 55.8 °F /  13.2 °C 30.04in /  1017.2hPa Calm     92% 0.00in /  0mm WeatherDisplay:10.37 W/m2 OVC
22:49 58.1 °F /  14.5 °C 55.7 °F /  13.2 °C 30.05in /  1017.5hPa Calm     92% 0.00in /  0mm WeatherDisplay:10.37 W/m2 OVC
22:54 58.1 °F /  14.5 °C 55.7 °F /  13.2 °C 30.05in /  1017.5hPa Calm     92% 0.00in /  0mm WeatherDisplay:10.37 W/m2 OVC
22:59 58.2 °F /  14.6 °C 55.8 °F /  13.2 °C 30.05in /  1017.5hPa Calm     92% 0.00in /  0mm WeatherDisplay:10.37 W/m2 OVC
23:04 58.3 °F /  14.6 °C 55.9 °F /  13.3 °C 30.05in /  1017.5hPa Calm     92% 0.00in /  0mm WeatherDisplay:10.37 W/m2 OVC
23:09 58.3 °F /  14.6 °C 55.9 °F /  13.3 °C 30.05in /  1017.5hPa Calm     92% 0.00in /  0mm WeatherDisplay:10.37 W/m2 OVC
23:16 58.2 °F /  14.6 °C 55.8 °F /  13.2 °C 30.05in /  1017.5hPa Calm     92% 0.00in /  0mm WeatherDisplay:10.37 W/m2 OVC
23:21 58.3 °F /  14.6 °C 55.9 °F /  13.3 °C 30.05in /  1017.5hPa Calm     92% 0.00in /  0mm WeatherDisplay:10.37 W/m2 OVC
23:24 58.4 °F /  14.7 °C 56.0 °F /  13.3 °C 30.05in /  1017.5hPa Calm     92% 0.00in /  0mm WeatherDisplay:10.37 W/m2 OVC
23:26 58.4 °F /  14.7 °C 56.0 °F /  13.3 °C 30.05in /  1017.5hPa Calm     92% 0.00in /  0mm WeatherDisplay:10.37 W/m2 OVC
23:27 58.4 °F /  14.7 °C 56.0 °F /  13.3 °C 30.05in /  1017.5hPa Calm     92% 0.00in /  0mm WeatherDisplay:10.37 W/m2 OVC
23:32 58.5 °F /  14.7 °C 56.1 °F /  13.4 °C 30.05in /  1017.5hPa Calm     92% 0.00in /  0mm WeatherDisplay:10.37 W/m2 OVC
23:37 58.6 °F /  14.8 °C 56.2 °F /  13.4 °C 30.05in /  1017.5hPa Calm     92% 0.00in /  0mm WeatherDisplay:10.37 W/m2 OVC
23:42 58.6 °F /  14.8 °C 56.2 °F /  13.4 °C 30.06in /  1017.8hPa Calm     92% 0.00in /  0mm WeatherDisplay:10.37 W/m2 OVC
23:47 58.6 °F /  14.8 °C 56.2 °F /  13.4 °C 30.06in /  1017.8hPa Calm     92% 0.00in /  0mm WeatherDisplay:10.37 W/m2 OVC
23:57 58.9 °F /  14.9 °C 56.5 °F /  13.6 °C 30.05in /  1017.5hPa SW 1.2mph /  1.9km/h 1.2mph /  1.9km/h 92% 0.00in /  0mm WeatherDisplay:10.37 W/m2 OVC
Smyth Weather
Compliments of Weather Underground - 3 mb